createdAt,value
2018-12-01T00:02:21.751Z,32.28
2018-12-01T00:05:09.255Z,31.25
2018-12-01T00:07:41.895Z,27.27
2018-12-01T00:10:14.534Z,29.52
2018-12-01T00:12:47.145Z,33.42
2018-12-01T00:15:24.356Z,33.70
2018-12-01T00:17:57.173Z,34.05
2018-12-01T00:20:31.861Z,28.23
2018-12-01T00:23:05.582Z,28.42
2018-12-01T00:25:38.870Z,30.70
2018-12-01T00:28:11.522Z,36.05
2018-12-01T00:30:44.102Z,26.60
2018-12-01T00:33:16.649Z,30.43
2018-12-01T00:35:49.362Z,39.88
2018-12-01T00:38:22.022Z,30.50
2018-12-01T00:40:54.641Z,29.00
2018-12-01T00:43:27.974Z,32.35
2018-12-01T00:45:59.890Z,35.20
2018-12-01T00:48:32.485Z,33.00
2018-12-01T00:51:05.570Z,31.33
2018-12-01T00:53:38.174Z,27.13
2018-12-01T00:56:10.944Z,35.70
2018-12-01T00:58:43.479Z,35.15
2018-12-01T01:01:16.070Z,29.25
2018-12-01T01:03:48.692Z,31.65
2018-12-01T01:06:21.380Z,36.58
2018-12-01T01:08:54.147Z,28.20
2018-12-01T01:11:26.842Z,41.00
2018-12-01T01:13:59.497Z,36.42
2018-12-01T01:16:32.120Z,36.00
2018-12-01T01:19:04.956Z,23.95
2018-12-01T01:21:37.583Z,30.90
2018-12-01T01:24:10.166Z,30.85
2018-12-01T01:26:42.812Z,35.65
2018-12-01T01:29:15.419Z,30.43
2018-12-01T01:31:48.071Z,30.92
2018-12-01T01:34:20.749Z,35.10
2018-12-01T01:36:53.374Z,42.65
2018-12-01T01:39:25.961Z,31.70
2018-12-01T01:41:58.537Z,31.27
2018-12-01T01:44:31.142Z,34.55
2018-12-01T01:47:03.839Z,33.88
2018-12-01T01:49:36.439Z,28.42
2018-12-01T01:52:09.197Z,41.00
2018-12-01T01:54:41.940Z,34.38
2018-12-01T01:57:14.552Z,30.30
2018-12-01T01:59:47.230Z,37.75
2018-12-01T02:02:20.306Z,26.77
2018-12-01T02:04:52.941Z,26.35
2018-12-01T02:07:25.517Z,27.73
2018-12-01T02:09:58.146Z,30.48
2018-12-01T02:12:30.758Z,22.85
2018-12-01T02:15:04.242Z,27.15
2018-12-01T02:17:36.896Z,21.85
2018-12-01T02:20:14.502Z,28.65
2018-12-01T02:22:47.252Z,20.02
2018-12-01T02:25:19.898Z,27.95
2018-12-01T02:27:52.563Z,21.73
2018-12-01T02:30:25.128Z,25.17
2018-12-01T02:32:57.831Z,22.22
2018-12-01T02:35:31.204Z,24.27
2018-12-01T02:38:03.857Z,28.55
2018-12-01T02:40:36.445Z,31.25
2018-12-01T02:43:09.172Z,29.45
2018-12-01T02:45:53.206Z,37.63
2018-12-01T02:48:25.730Z,22.37
2018-12-01T02:50:58.334Z,28.65
2018-12-01T02:53:30.936Z,30.97
2018-12-01T02:56:03.505Z,28.80
2018-12-01T02:58:36.161Z,28.45
2018-12-01T03:01:08.725Z,22.77
2018-12-01T03:03:41.362Z,36.90
2018-12-01T03:06:14.686Z,24.77
2018-12-01T03:08:47.293Z,28.57
2018-12-01T03:11:19.891Z,30.75
2018-12-01T03:13:52.581Z,19.30
2018-12-01T03:16:25.143Z,24.10
2018-12-01T03:18:57.855Z,25.48
2018-12-01T03:21:30.474Z,25.27
2018-12-01T03:24:03.167Z,20.82
2018-12-01T03:26:35.785Z,15.55
2018-12-01T03:29:08.519Z,23.60
2018-12-01T03:31:41.155Z,24.47
2018-12-01T03:34:13.774Z,16.37
2018-12-01T03:36:46.381Z,28.47
2018-12-01T03:39:19.053Z,19.15
2018-12-01T03:41:51.696Z,20.80
2018-12-01T03:44:24.289Z,16.87
2018-12-01T03:46:56.906Z,15.35
2018-12-01T03:49:29.494Z,16.87
2018-12-01T03:52:02.144Z,20.48
2018-12-01T03:54:34.707Z,16.30
2018-12-01T03:57:07.407Z,21.35
2018-12-01T03:59:40.097Z,20.57
2018-12-01T04:02:12.626Z,16.82
2018-12-01T04:04:45.250Z,24.50
2018-12-01T04:07:17.891Z,15.20
2018-12-01T04:09:50.532Z,22.32
2018-12-01T04:12:23.214Z,18.17
2018-12-01T04:14:55.845Z,18.10
2018-12-01T04:17:28.537Z,25.30
2018-12-01T04:20:01.093Z,20.27
2018-12-01T04:22:33.747Z,30.02
2018-12-01T04:25:07.662Z,22.40
2018-12-01T04:27:40.340Z,26.62
2018-12-01T04:30:20.814Z,19.48
2018-12-01T04:32:53.558Z,19.10
2018-12-01T04:35:26.253Z,22.42
2018-12-01T04:37:58.888Z,18.98
2018-12-01T04:40:31.458Z,22.98
2018-12-01T04:43:04.190Z,35.95
2018-12-01T04:45:36.718Z,18.52
2018-12-01T04:48:09.312Z,20.80
2018-12-01T04:50:41.901Z,21.48
2018-12-01T04:53:14.497Z,22.62
2018-12-01T04:55:47.099Z,23.35
2018-12-01T04:58:19.661Z,22.37
2018-12-01T05:00:52.291Z,23.65
2018-12-01T05:03:24.916Z,22.87
2018-12-01T05:05:57.611Z,25.05
2018-12-01T05:08:30.257Z,22.15
2018-12-01T05:11:02.835Z,18.05
2018-12-01T05:13:35.586Z,22.77
2018-12-01T05:16:08.206Z,25.25
2018-12-01T05:18:40.777Z,24.47
2018-12-01T05:21:13.465Z,27.65
2018-12-01T05:23:46.043Z,26.45
2018-12-01T05:26:18.677Z,23.45
2018-12-01T05:28:51.389Z,26.90
2018-12-01T05:31:23.975Z,25.00
2018-12-01T05:33:56.622Z,24.95
2018-12-01T05:36:29.206Z,18.87
2018-12-01T05:39:01.833Z,23.87
2018-12-01T05:41:34.519Z,21.85
2018-12-01T05:44:07.058Z,24.02
2018-12-01T05:46:39.694Z,20.77
2018-12-01T05:49:12.331Z,24.10
2018-12-01T05:51:44.914Z,24.98
2018-12-01T05:54:17.486Z,17.75
2018-12-01T05:56:50.132Z,19.42
2018-12-01T05:59:23.509Z,20.62
2018-12-01T06:01:56.071Z,22.27
2018-12-01T06:04:28.707Z,14.73
2018-12-01T06:07:01.330Z,18.77
2018-12-01T06:09:34.016Z,22.52
2018-12-01T06:12:06.639Z,25.80
2018-12-01T06:14:39.274Z,23.73
2018-12-01T06:17:11.880Z,24.77
2018-12-01T06:19:44.453Z,26.20
2018-12-01T06:22:17.072Z,21.05
2018-12-01T06:24:49.728Z,32.08
2018-12-01T06:27:22.357Z,22.75
2018-12-01T06:29:54.902Z,20.82
2018-12-01T06:32:27.650Z,26.75
2018-12-01T06:35:00.318Z,20.20
2018-12-01T06:37:32.943Z,22.95
2018-12-01T06:40:08.824Z,27.42
2018-12-01T06:42:41.443Z,21.60
2018-12-01T06:45:14.806Z,21.23
2018-12-01T06:47:47.490Z,26.27
2018-12-01T06:50:22.205Z,20.48
2018-12-01T06:52:54.846Z,25.00
2018-12-01T06:55:27.469Z,28.17
2018-12-01T06:58:00.182Z,15.18
2018-12-01T07:00:32.870Z,22.82
2018-12-01T07:03:05.734Z,19.85
2018-12-01T07:05:38.377Z,19.07
2018-12-01T07:08:11.103Z,17.27
2018-12-01T07:10:43.884Z,17.55
2018-12-01T07:13:16.517Z,23.38
2018-12-01T07:15:49.111Z,19.48
2018-12-01T07:18:33.002Z,27.73
2018-12-01T07:21:05.694Z,21.95
2018-12-01T07:23:38.344Z,16.48
2018-12-01T07:26:11.075Z,16.25
2018-12-01T07:28:43.713Z,20.55
2018-12-01T07:31:16.343Z,21.33
2018-12-01T07:33:49.063Z,17.60
2018-12-01T07:36:21.773Z,14.25
2018-12-01T07:38:54.494Z,21.90
2018-12-01T07:41:27.141Z,15.58
2018-12-01T07:43:59.847Z,18.87
2018-12-01T07:46:32.471Z,14.65
2018-12-01T07:49:05.147Z,10.53
2018-12-01T07:51:37.769Z,20.37
2018-12-01T07:54:10.495Z,19.25
2018-12-01T07:56:43.145Z,24.02
2018-12-01T07:59:15.834Z,22.27
2018-12-01T08:01:48.604Z,22.15
2018-12-01T08:04:21.213Z,18.75
2018-12-01T08:06:53.882Z,13.93
2018-12-01T08:09:26.464Z,11.68
2018-12-01T08:11:59.150Z,18.45
2018-12-01T08:14:31.823Z,15.72
2018-12-01T08:17:04.725Z,18.37
2018-12-01T08:19:37.413Z,8.73
2018-12-01T08:22:10.091Z,9.08
2018-12-01T08:24:42.771Z,12.88
2018-12-01T08:27:15.479Z,12.07
2018-12-01T08:29:48.119Z,14.38
2018-12-01T08:32:20.794Z,19.15
2018-12-01T08:34:53.450Z,15.88
2018-12-01T08:37:26.160Z,15.93
2018-12-01T08:39:58.831Z,18.85
2018-12-01T08:42:31.515Z,12.73
2018-12-01T08:45:07.612Z,13.20
2018-12-01T08:47:40.734Z,17.40
2018-12-01T08:50:15.442Z,14.98
2018-12-01T08:52:48.161Z,14.90
2018-12-01T08:55:22.724Z,13.93
2018-12-01T08:57:55.457Z,12.93
2018-12-01T09:00:30.559Z,18.27
2018-12-01T09:03:20.248Z,15.98
2018-12-01T09:05:53.402Z,13.70
2018-12-01T09:08:26.102Z,10.82
2018-12-01T09:10:58.715Z,16.67
2018-12-01T09:13:31.370Z,13.35
2018-12-01T09:16:04.091Z,8.15
2018-12-01T09:18:36.691Z,8.15
2018-12-01T09:21:09.250Z,9.75
2018-12-01T09:23:42.060Z,12.13
2018-12-01T09:26:14.812Z,16.40
2018-12-01T09:28:47.510Z,11.33
2018-12-01T09:31:20.197Z,13.98
2018-12-01T09:33:52.870Z,14.75
2018-12-01T09:36:25.517Z,15.20
2018-12-01T09:38:58.216Z,15.90
2018-12-01T09:41:30.917Z,16.42
2018-12-01T09:44:03.566Z,9.85
2018-12-01T09:46:36.443Z,15.45
2018-12-01T09:49:10.021Z,13.88
2018-12-01T09:51:42.843Z,10.45
2018-12-01T09:54:15.518Z,9.48
2018-12-01T09:56:48.182Z,14.95
2018-12-01T09:59:20.847Z,13.05
2018-12-01T10:01:53.738Z,10.60
2018-12-01T10:04:26.375Z,12.25
2018-12-01T10:06:59.045Z,17.05
2018-12-01T10:09:31.667Z,12.18
2018-12-01T10:12:05.089Z,13.03
2018-12-01T10:14:37.773Z,14.00
2018-12-01T10:17:10.389Z,12.70
2018-12-01T10:19:43.027Z,10.60
2018-12-01T10:22:15.727Z,14.10
2018-12-01T10:24:48.410Z,10.43
2018-12-01T10:27:21.141Z,9.83
2018-12-01T10:29:53.818Z,11.68
2018-12-01T10:32:26.611Z,13.08
2018-12-01T10:34:59.231Z,10.82
2018-12-01T10:37:31.865Z,9.70
2018-12-01T10:40:09.392Z,9.98
2018-12-01T10:42:42.106Z,9.98
2018-12-01T10:45:17.008Z,6.80
2018-12-01T10:47:50.091Z,14.33
2018-12-01T10:50:23.535Z,15.30
2018-12-01T10:52:56.172Z,12.20
2018-12-01T10:55:31.687Z,7.08
2018-12-01T10:58:16.499Z,11.10
2018-12-01T11:00:55.903Z,7.90
2018-12-01T11:03:34.988Z,9.93
2018-12-01T11:06:13.384Z,11.38
2018-12-01T11:08:46.054Z,6.33
2018-12-01T11:11:19.293Z,8.70
2018-12-01T11:13:51.866Z,6.53
2018-12-01T11:16:24.563Z,8.23
2018-12-01T11:18:57.309Z,5.80
2018-12-01T11:21:30.094Z,6.60
2018-12-01T11:24:02.826Z,7.15
2018-12-01T11:26:35.571Z,10.40
2018-12-01T11:29:08.347Z,8.43
2018-12-01T11:31:41.075Z,11.65
2018-12-01T11:34:13.765Z,6.35
2018-12-01T11:36:46.707Z,9.23
2018-12-01T11:39:19.361Z,9.40
2018-12-01T11:41:52.156Z,11.57
2018-12-01T11:44:24.845Z,19.95
2018-12-01T11:46:57.604Z,6.97
2018-12-01T11:49:30.269Z,5.30
2018-12-01T11:52:02.967Z,8.48
2018-12-01T11:54:35.650Z,9.15
2018-12-01T11:57:08.361Z,7.10
2018-12-01T11:59:40.948Z,5.35
2018-12-01T12:02:13.733Z,6.58
2018-12-01T12:04:46.484Z,12.07
2018-12-01T12:07:30.520Z,9.60
2018-12-01T12:10:03.317Z,6.75
2018-12-01T12:12:35.928Z,15.80
2018-12-01T12:15:11.256Z,7.47
2018-12-01T12:17:46.820Z,8.43
2018-12-01T12:20:19.565Z,13.20
2018-12-01T12:22:52.414Z,13.80
2018-12-01T12:25:25.061Z,4.78
2018-12-01T12:27:58.500Z,10.55
2018-12-01T12:30:31.299Z,6.45
2018-12-01T12:33:04.274Z,8.90
2018-12-01T12:35:37.467Z,8.70
2018-12-01T12:38:10.195Z,7.05
2018-12-01T12:40:42.905Z,7.85
2018-12-01T12:43:15.570Z,5.65
2018-12-01T12:45:48.317Z,7.65
2018-12-01T12:48:20.933Z,10.95
2018-12-01T12:50:53.662Z,7.87
2018-12-01T12:53:26.279Z,8.18
2018-12-01T12:55:59.056Z,6.92
2018-12-01T12:58:31.788Z,7.78
2018-12-01T13:01:05.019Z,4.67
2018-12-01T13:03:37.762Z,6.43
2018-12-01T13:06:10.645Z,9.33
2018-12-01T13:08:43.345Z,6.00
2018-12-01T13:11:16.017Z,9.33
2018-12-01T13:13:48.790Z,12.88
2018-12-01T13:16:21.536Z,5.53
2018-12-01T13:18:54.136Z,7.00
2018-12-01T13:21:26.756Z,9.35
2018-12-01T13:23:59.420Z,3.77
2018-12-01T13:26:32.105Z,7.17
2018-12-01T13:29:04.743Z,4.50
2018-12-01T13:31:38.054Z,6.35
2018-12-01T13:34:11.897Z,5.35
2018-12-01T13:36:44.568Z,6.78
2018-12-01T13:39:17.225Z,9.65
2018-12-01T13:41:49.853Z,6.50
2018-12-01T13:44:22.492Z,5.20
2018-12-01T13:46:55.172Z,8.93
2018-12-01T13:49:27.947Z,9.60
2018-12-01T13:52:00.650Z,5.53
2018-12-01T13:54:33.347Z,8.28
2018-12-01T13:57:06.064Z,11.43
2018-12-01T13:59:38.789Z,6.42
2018-12-01T14:02:11.528Z,8.33
2018-12-01T14:04:44.099Z,7.65
2018-12-01T14:07:16.824Z,6.85
2018-12-01T14:09:49.571Z,5.12
2018-12-01T14:12:22.278Z,7.45
2018-12-01T14:14:54.982Z,7.00
2018-12-01T14:17:29.550Z,5.35
2018-12-01T14:20:02.336Z,7.35
2018-12-01T14:22:35.046Z,5.22
2018-12-01T14:25:09.915Z,5.22
2018-12-01T14:27:44.244Z,4.28
2018-12-01T14:30:17.077Z,5.30
2018-12-01T14:32:50.755Z,7.15
2018-12-01T14:35:24.781Z,5.62
2018-12-01T14:38:04.597Z,12.98
2018-12-01T14:40:38.322Z,5.33
2018-12-01T14:43:11.318Z,4.70
2018-12-01T14:45:45.322Z,6.37
2018-12-01T14:48:17.966Z,6.92
2018-12-01T14:50:50.699Z,4.62
2018-12-01T14:53:23.336Z,7.65
2018-12-01T14:55:56.023Z,6.97
2018-12-01T14:58:28.693Z,5.17
2018-12-01T15:01:03.059Z,5.85
2018-12-01T15:03:35.679Z,5.75
2018-12-01T15:06:08.504Z,8.93
2018-12-01T15:08:41.220Z,8.80
2018-12-01T15:11:13.931Z,5.85
2018-12-01T15:13:46.530Z,5.22
2018-12-01T15:16:19.265Z,5.55
2018-12-01T15:18:51.871Z,7.45
2018-12-01T15:21:24.554Z,7.25
2018-12-01T15:23:58.108Z,5.78
2018-12-01T15:26:30.949Z,3.90
2018-12-01T15:29:03.612Z,7.67
2018-12-01T15:31:36.352Z,6.37
2018-12-01T15:34:09.102Z,8.68
2018-12-01T15:36:42.812Z,6.97
2018-12-01T15:39:26.632Z,4.97
2018-12-01T15:41:59.497Z,6.15
2018-12-01T15:44:32.195Z,6.08
2018-12-01T15:47:04.987Z,4.08
2018-12-01T15:49:37.754Z,5.70
2018-12-01T15:52:10.507Z,7.60
2018-12-01T15:54:43.403Z,7.92
2018-12-01T15:57:16.145Z,7.75
2018-12-01T15:59:48.859Z,5.50
2018-12-01T16:02:21.530Z,4.78
2018-12-01T16:04:54.206Z,10.90
2018-12-01T16:07:26.970Z,7.75
2018-12-01T16:09:59.682Z,6.50
2018-12-01T16:12:32.375Z,11.30
2018-12-01T16:15:09.310Z,6.28
2018-12-01T16:17:42.715Z,16.17
2018-12-01T16:20:15.540Z,6.22
2018-12-01T16:22:48.304Z,4.87
2018-12-01T16:25:23.026Z,5.78
2018-12-01T16:27:55.759Z,13.22
2018-12-01T16:30:30.922Z,6.97
2018-12-01T16:33:05.967Z,4.58
2018-12-01T16:35:38.732Z,7.65
2018-12-01T16:38:12.867Z,3.45
2018-12-01T16:40:49.752Z,5.33
2018-12-01T16:43:22.467Z,6.97
2018-12-01T16:45:55.221Z,6.40
2018-12-01T16:48:28.075Z,5.15
2018-12-01T16:51:00.803Z,9.80
2018-12-01T16:53:33.535Z,4.45
2018-12-01T16:56:06.178Z,8.73
2018-12-01T16:58:38.971Z,4.50
2018-12-01T17:01:11.773Z,4.25
2018-12-01T17:03:44.433Z,6.10
2018-12-01T17:06:18.462Z,5.17
2018-12-01T17:08:52.504Z,8.95
2018-12-01T17:11:25.268Z,4.70
2018-12-01T17:13:58.648Z,5.83
2018-12-01T17:16:31.343Z,6.42
2018-12-01T17:19:04.302Z,5.58
2018-12-01T17:21:36.937Z,6.15
2018-12-01T17:24:09.578Z,5.97
2018-12-01T17:26:42.274Z,8.78
2018-12-01T17:29:14.966Z,5.60
2018-12-01T17:31:47.589Z,5.90
2018-12-01T17:34:20.355Z,6.25
2018-12-01T17:36:53.065Z,3.80
2018-12-01T17:39:25.791Z,5.85
2018-12-01T17:41:59.991Z,9.80
2018-12-01T17:44:32.757Z,4.00
2018-12-01T17:47:05.808Z,5.53
2018-12-01T17:49:38.492Z,5.37
2018-12-01T17:52:11.417Z,4.08
2018-12-01T17:54:44.132Z,5.25
2018-12-01T17:57:16.818Z,8.43
2018-12-01T17:59:49.543Z,4.03
2018-12-01T18:02:22.236Z,6.12
2018-12-01T18:04:55.849Z,4.25
2018-12-01T18:07:28.502Z,9.10
2018-12-01T18:10:01.247Z,4.50
2018-12-01T18:12:33.817Z,5.12
2018-12-01T18:15:10.152Z,3.77
2018-12-01T18:17:42.877Z,4.47
2018-12-01T18:20:19.590Z,3.62
2018-12-01T18:22:56.535Z,6.70
2018-12-01T18:25:32.004Z,9.23
2018-12-01T18:28:05.476Z,3.20
2018-12-01T18:30:39.304Z,3.75
2018-12-01T18:33:21.768Z,3.35
2018-12-01T18:35:54.546Z,4.60
2018-12-01T18:38:27.397Z,4.22
2018-12-01T18:41:00.191Z,4.80
2018-12-01T18:43:32.851Z,3.67
2018-12-01T18:46:10.318Z,3.52
2018-12-01T18:48:43.850Z,6.53
2018-12-01T18:51:16.587Z,4.05
2018-12-01T18:53:49.410Z,4.53
2018-12-01T18:56:22.135Z,9.63
2018-12-01T18:58:54.798Z,4.00
2018-12-01T19:01:27.398Z,5.60
2018-12-01T19:04:00.141Z,11.50
2018-12-01T19:06:32.794Z,6.47
2018-12-01T19:09:07.246Z,7.12
2018-12-01T19:11:40.020Z,5.60
2018-12-01T19:14:12.716Z,7.25
2018-12-01T19:16:45.401Z,6.35
2018-12-01T19:19:18.172Z,6.12
2018-12-01T19:21:50.863Z,4.78
2018-12-01T19:24:23.465Z,6.28
2018-12-01T19:26:56.156Z,4.12
2018-12-01T19:29:28.826Z,5.03
2018-12-01T19:32:02.550Z,4.28
2018-12-01T19:34:35.233Z,7.22
2018-12-01T19:37:07.897Z,3.67
2018-12-01T19:39:40.577Z,4.42
2018-12-01T19:42:13.347Z,4.17
2018-12-01T19:44:46.017Z,4.78
2018-12-01T19:47:18.909Z,7.28
2018-12-01T19:49:51.702Z,3.70
2018-12-01T19:52:24.384Z,3.15
2018-12-01T19:54:57.133Z,5.72
2018-12-01T19:57:29.789Z,3.37
2018-12-01T20:00:02.568Z,3.67
2018-12-01T20:02:35.369Z,6.10
2018-12-01T20:05:09.868Z,3.83
2018-12-01T20:07:42.696Z,7.55
2018-12-01T20:10:20.676Z,5.20
2018-12-01T20:12:56.568Z,4.58
2018-12-01T20:15:31.256Z,5.08
2018-12-01T20:18:21.255Z,6.17
2018-12-01T20:20:53.962Z,5.33
2018-12-01T20:23:26.664Z,6.25
2018-12-01T20:25:59.382Z,10.05
2018-12-01T20:28:32.246Z,8.50
2018-12-01T20:31:05.267Z,6.92
2018-12-01T20:33:38.013Z,4.25
2018-12-01T20:36:17.917Z,5.70
2018-12-01T20:38:53.378Z,3.60
2018-12-01T20:41:26.096Z,4.15
2018-12-01T20:43:58.785Z,4.15
2018-12-01T20:46:31.606Z,4.30
2018-12-01T20:49:04.702Z,5.20
2018-12-01T20:51:37.405Z,3.85
2018-12-01T20:54:21.083Z,3.55
2018-12-01T20:56:58.564Z,6.40
2018-12-01T20:59:31.289Z,5.62
2018-12-01T21:02:03.912Z,9.00
2018-12-01T21:04:36.615Z,4.53
2018-12-01T21:07:09.301Z,4.20
2018-12-01T21:09:41.987Z,6.67
2018-12-01T21:12:15.278Z,5.87
2018-12-01T21:14:47.945Z,3.15
2018-12-01T21:17:20.691Z,3.20
2018-12-01T21:19:53.463Z,3.33
2018-12-01T21:22:26.190Z,6.92
2018-12-01T21:24:58.882Z,3.40
2018-12-01T21:27:31.526Z,3.52
2018-12-01T21:30:08.921Z,3.72
2018-12-01T21:32:41.672Z,11.05
2018-12-01T21:35:14.428Z,4.75
2018-12-01T21:37:47.102Z,4.95
2018-12-01T21:40:20.202Z,6.20
2018-12-01T21:42:52.898Z,5.20
2018-12-01T21:45:25.526Z,9.20
2018-12-01T21:47:58.253Z,6.05
2018-12-01T21:50:30.922Z,3.77
2018-12-01T21:53:03.785Z,7.72
2018-12-01T21:55:36.418Z,6.03
2018-12-01T21:58:09.142Z,5.40
2018-12-01T22:00:45.277Z,4.05
2018-12-01T22:03:18.627Z,3.10
2018-12-01T22:05:55.664Z,3.00
2018-12-01T22:08:28.969Z,5.33
2018-12-01T22:11:01.673Z,3.40
2018-12-01T22:13:34.389Z,3.95
2018-12-01T22:16:08.037Z,8.33
2018-12-01T22:18:40.719Z,4.97
2018-12-01T22:21:13.400Z,11.30
2018-12-01T22:23:46.065Z,4.83
2018-12-01T22:26:18.680Z,4.90
2018-12-01T22:28:51.415Z,3.70
2018-12-01T22:31:24.964Z,5.20
2018-12-01T22:33:57.616Z,4.67
2018-12-01T22:36:30.406Z,6.33
2018-12-01T22:39:04.029Z,5.97
2018-12-01T22:41:36.641Z,3.98
2018-12-01T22:44:09.289Z,5.55
2018-12-01T22:46:41.917Z,3.98
2018-12-01T22:49:15.698Z,3.77
2018-12-01T22:51:47.214Z,5.00
2018-12-01T22:54:19.947Z,4.58
2018-12-01T22:56:52.694Z,6.10
2018-12-01T22:59:25.368Z,6.17
2018-12-01T23:01:58.055Z,3.90
2018-12-01T23:04:30.659Z,3.50
2018-12-01T23:07:03.305Z,4.08
2018-12-01T23:09:36.030Z,4.17
2018-12-01T23:12:08.713Z,3.30
2018-12-01T23:14:41.424Z,4.80
2018-12-01T23:17:14.102Z,3.92
2018-12-01T23:19:46.752Z,4.22
2018-12-01T23:22:19.444Z,11.35
2018-12-01T23:24:52.051Z,3.90
2018-12-01T23:27:24.741Z,5.50
2018-12-01T23:29:57.358Z,3.15
2018-12-01T23:32:30.026Z,2.60
2018-12-01T23:35:02.622Z,4.25
2018-12-01T23:37:36.213Z,3.77
2018-12-01T23:40:10.434Z,3.00
2018-12-01T23:42:43.062Z,5.00
2018-12-01T23:45:16.794Z,4.33
2018-12-01T23:47:49.497Z,3.62
2018-12-01T23:50:24.333Z,2.10
2018-12-01T23:52:59.898Z,3.85
2018-12-01T23:55:33.243Z,3.37
2018-12-01T23:58:05.890Z,3.50
